Terminal Aerodrome Forecast
Issued by NWS

Home | Current Version | Previous Version | Text Only | Print | Product List | Glossary On
Versions: 1 2 3 4 5 6 7 8 9 10 11 12 13 14 15 16 17 18 19
000
FTUS45 KGJT 270539
TAFMTJ
TAF
KMTJ 270539Z 2706/2806 13007KT P6SM SCT100
     FM271800 23008KT P6SM BKN100
     FM272000 23008KT P6SM VCSH BKN080
     FM280300 14005KT P6SM VCSH BKN050=

USA.gov is the U.S. government's official web portal to all federal, state and local government web resources and services.